CYBB

Pelly Bay Airport

Pelly Bay, Canada

CYBB 191500Z 01011G16KT 10SM OVC012 M01/M03 A3013 RMK ST8 SLP205

Observed Flight Rules
Sep-19 @ 15:00 UTC (29 minutes ago)
 
Marginal Visual Flight Rules
Wind Visibility Clouds
10° at 11 knots
 Gusting to 16 knots
10 miles
  • Overcast at 1,200' AGL
Temperatures Readings
Current -1°C / 30°F
Dewpoint -3°C / 27°F
Humidity 86%
Altimeter 30.13" Hg
Pressure 1020.5 hPa
Elevation 15
Observed Flight Rules
Sep-19 @ 15:00 UTC
(29 minutes ago)
 
MVFR
Wind Visibility
10° at 11 knots
 Gusting to 16 knots
10 miles
Clouds
  • Overcast at 1,200' AGL
Temperature Dewpoint
-1°C / 30°F -3°C / 27°F
Humidity Altimeter Pressure
86% 30.13" Hg 1020.5 hPa